sensor_id;sensor_type;location;lat;lon;timestamp;pressure;altitude;pressure_sealevel;temperature;humidity
22283;BME280;11310;51.528;21.204;2023-02-19T00:02:02;99491.06;;;3.56;100.00
22283;BME280;11310;51.528;21.204;2023-02-19T00:04:30;99496.25;;;3.56;100.00
22283;BME280;11310;51.528;21.204;2023-02-19T00:06:59;99487.63;;;3.54;100.00
22283;BME280;11310;51.528;21.204;2023-02-19T00:09:28;99485.94;;;3.53;100.00
22283;BME280;11310;51.528;21.204;2023-02-19T00:11:56;99492.88;;;3.52;100.00
22283;BME280;11310;51.528;21.204;2023-02-19T00:14:26;99499.81;;;3.52;100.00
22283;BME280;11310;51.528;21.204;2023-02-19T00:16:55;99494.63;;;3.52;100.00
22283;BME280;11310;51.528;21.204;2023-02-19T00:19:23;99507.59;;;3.52;100.00
22283;BME280;11310;51.528;21.204;2023-02-19T00:21:52;99502.41;;;3.52;100.00
22283;BME280;11310;51.528;21.204;2023-02-19T00:24:21;99501.50;;;3.53;100.00
22283;BME280;11310;51.528;21.204;2023-02-19T00:26:49;99498.94;;;3.51;100.00
22283;BME280;11310;51.528;21.204;2023-02-19T00:29:19;99497.22;;;3.52;100.00
22283;BME280;11310;51.528;21.204;2023-02-19T00:31:50;99503.19;;;3.54;100.00
22283;BME280;11310;51.528;21.204;2023-02-19T00:34:19;99511.88;;;3.53;100.00
22283;BME280;11310;51.528;21.204;2023-02-19T00:36:47;99504.91;;;3.55;100.00
22283;BME280;11310;51.528;21.204;2023-02-19T00:39:17;99508.38;;;3.54;100.00
22283;BME280;11310;51.528;21.204;2023-02-19T00:41:47;99511.81;;;3.56;100.00
22283;BME280;11310;51.528;21.204;2023-02-19T00:44:16;99502.38;;;3.53;100.00
22283;BME280;11310;51.528;21.204;2023-02-19T00:46:47;99497.25;;;3.50;100.00
22283;BME280;11310;51.528;21.204;2023-02-19T00:49:19;99499.06;;;3.47;100.00
22283;BME280;11310;51.528;21.204;2023-02-19T00:51:49;99494.78;;;3.46;100.00
22283;BME280;11310;51.528;21.204;2023-02-19T00:54:18;99500.84;;;3.45;100.00
22283;BME280;11310;51.528;21.204;2023-02-19T00:56:49;99496.47;;;3.47;100.00
22283;BME280;11310;51.528;21.204;2023-02-19T00:59:18;99500.78;;;3.48;100.00
22283;BME280;11310;51.528;21.204;2023-02-19T01:01:47;99494.78;;;3.46;100.00
22283;BME280;11310;51.528;21.204;2023-02-19T01:04:18;99496.56;;;3.44;100.00
22283;BME280;11310;51.528;21.204;2023-02-19T01:06:47;99496.59;;;3.42;100.00
22283;BME280;11310;51.528;21.204;2023-02-19T01:09:16;99489.66;;;3.43;100.00
22283;BME280;11310;51.528;21.204;2023-02-19T01:11:44;99488.81;;;3.42;100.00
22283;BME280;11310;51.528;21.204;2023-02-19T01:14:13;99486.25;;;3.41;100.00
22283;BME280;11310;51.528;21.204;2023-02-19T01:16:41;99486.25;;;3.41;100.00
22283;BME280;11310;51.528;21.204;2023-02-19T01:19:11;99483.66;;;3.41;100.00
22283;BME280;11310;51.528;21.204;2023-02-19T01:21:41;99482.78;;;3.42;100.00
22283;BME280;11310;51.528;21.204;2023-02-19T01:24:09;99482.78;;;3.42;100.00
22283;BME280;11310;51.528;21.204;2023-02-19T01:26:37;99474.16;;;3.41;100.00
22283;BME280;11310;51.528;21.204;2023-02-19T01:29:06;99479.38;;;3.40;100.00
22283;BME280;11310;51.528;21.204;2023-02-19T01:31:34;99476.75;;;3.41;100.00
22283;BME280;11310;51.528;21.204;2023-02-19T01:34:03;99477.66;;;3.40;100.00
22283;BME280;11310;51.528;21.204;2023-02-19T01:36:32;99482.78;;;3.42;100.00
22283;BME280;11310;51.528;21.204;2023-02-19T01:39:05;99483.72;;;3.39;100.00
22283;BME280;11310;51.528;21.204;2023-02-19T01:41:35;99486.25;;;3.41;100.00
22283;BME280;11310;51.528;21.204;2023-02-19T01:44:06;99483.66;;;3.41;100.00
22283;BME280;11310;51.528;21.204;2023-02-19T01:46:36;99478.44;;;3.42;100.00
22283;BME280;11310;51.528;21.204;2023-02-19T01:49:10;99487.88;;;3.45;100.00
22283;BME280;11310;51.528;21.204;2023-02-19T01:51:43;99489.59;;;3.46;100.00
22283;BME280;11310;51.528;21.204;2023-02-19T01:54:16;99481.00;;;3.44;100.00
22283;BME280;11310;51.528;21.204;2023-02-19T01:56:49;99486.19;;;3.44;100.00
22283;BME280;11310;51.528;21.204;2023-02-19T01:59:18;99481.00;;;3.44;100.00
22283;BME280;11310;51.528;21.204;2023-02-19T02:01:47;99494.81;;;3.44;100.00
22283;BME280;11310;51.528;21.204;2023-02-19T02:04:17;99500.03;;;3.43;100.00
22283;BME280;11310;51.528;21.204;2023-02-19T02:06:49;99493.16;;;3.42;100.00
22283;BME280;11310;51.528;21.204;2023-02-19T02:09:23;99496.63;;;3.41;100.00
22283;BME280;11310;51.528;21.204;2023-02-19T02:12:11;99501.00;;;3.39;100.00
22283;BME280;11310;51.528;21.204;2023-02-19T02:14:42;99484.66;;;3.37;100.00
22283;BME280;11310;51.528;21.204;2023-02-19T02:17:19;99489.91;;;3.34;100.00
22283;BME280;11310;51.528;21.204;2023-02-19T02:20:02;99497.75;;;3.31;100.00
22283;BME280;11310;51.528;21.204;2023-02-19T02:22:37;99488.28;;;3.30;100.00
22283;BME280;11310;51.528;21.204;2023-02-19T02:28:42;99479.75;;;3.26;100.00
22283;BME280;11310;51.528;21.204;2023-02-19T02:31:22;99481.47;;;3.26;100.00
22283;BME280;11310;51.528;21.204;2023-02-19T02:34:00;99483.25;;;3.24;100.00
22283;BME280;11310;51.528;21.204;2023-02-19T02:36:35;99488.34;;;3.27;100.00
22283;BME280;11310;51.528;21.204;2023-02-19T02:39:08;99491.72;;;3.30;100.00
22283;BME280;11310;51.528;21.204;2023-02-19T02:41:41;99478.81;;;3.29;100.00
22283;BME280;11310;51.528;21.204;2023-02-19T02:44:10;99479.63;;;3.29;100.00
22283;BME280;11310;51.528;21.204;2023-02-19T02:46:43;99477.91;;;3.30;100.00
22283;BME280;11310;51.528;21.204;2023-02-19T02:49:16;99476.16;;;3.32;100.00
22283;BME280;11310;51.528;21.204;2023-02-19T02:51:50;99478.75;;;3.32;100.00
22283;BME280;11310;51.528;21.204;2023-02-19T02:54:27;99479.56;;;3.32;100.00
22283;BME280;11310;51.528;21.204;2023-02-19T02:57:17;99468.31;;;3.33;100.00
22283;BME280;11310;51.528;21.204;2023-02-19T02:59:53;99464.00;;;3.34;100.00
22283;BME280;11310;51.528;21.204;2023-02-19T03:02:27;99469.19;;;3.34;100.00
22283;BME280;11310;51.528;21.204;2023-02-19T03:05:01;99465.69;;;3.35;100.00
22283;BME280;11310;51.528;21.204;2023-02-19T03:07:53;99462.28;;;3.33;100.00
22283;BME280;11310;51.528;21.204;2023-02-19T03:10:27;99469.19;;;3.34;100.00
22283;BME280;11310;51.528;21.204;2023-02-19T03:12:59;99462.19;;;3.36;100.00
22283;BME280;11310;51.528;21.204;2023-02-19T03:15:50;99457.94;;;3.33;100.00
22283;BME280;11310;51.528;21.204;2023-02-19T03:18:41;99456.22;;;3.34;100.00
22283;BME280;11310;51.528;21.204;2023-02-19T03:21:33;99450.22;;;3.32;100.00
22283;BME280;11310;51.528;21.204;2023-02-19T03:24:09;99456.28;;;3.31;100.00
22283;BME280;11310;51.528;21.204;2023-02-19T03:26:58;99452.00;;;3.30;100.00
22283;BME280;11310;51.528;21.204;2023-02-19T03:29:34;99453.72;;;3.29;100.00
22283;BME280;11310;51.528;21.204;2023-02-19T03:32:09;99455.34;;;3.33;100.00
22283;BME280;11310;51.528;21.204;2023-02-19T03:34:43;99452.75;;;3.33;100.00
22283;BME280;11310;51.528;21.204;2023-02-19T03:37:16;99457.94;;;3.33;100.00
22283;BME280;11310;51.528;21.204;2023-02-19T03:39:47;99458.09;;;3.29;100.00
22283;BME280;11310;51.528;21.204;2023-02-19T03:42:23;99460.69;;;3.27;100.00
22283;BME280;11310;51.528;21.204;2023-02-19T03:45:04;99466.75;;;3.28;100.00
22283;BME280;11310;51.528;21.204;2023-02-19T03:47:45;99458.97;;;3.28;100.00
22283;BME280;11310;51.528;21.204;2023-02-19T03:50:21;99462.44;;;3.27;100.00
22283;BME280;11310;51.528;21.204;2023-02-19T03:52:57;99457.25;;;3.27;100.00
22283;BME280;11310;51.528;21.204;2023-02-19T03:55:32;99454.72;;;3.25;100.00
22283;BME280;11310;51.528;21.204;2023-02-19T03:58:06;99453.00;;;3.24;100.00
22283;BME280;11310;51.528;21.204;2023-02-19T04:00:38;99453.06;;;3.23;100.00
22283;BME280;11310;51.528;21.204;2023-02-19T04:03:16;99453.94;;;3.22;100.00
22283;BME280;11310;51.528;21.204;2023-02-19T04:05:51;99449.66;;;3.21;100.00
22283;BME280;11310;51.528;21.204;2023-02-19T04:08:23;99440.13;;;3.21;100.00
22283;BME280;11310;51.528;21.204;2023-02-19T04:10:59;99441.03;;;3.20;100.00
22283;BME280;11310;51.528;21.204;2023-02-19T04:13:33;99442.78;;;3.20;100.00
22283;BME280;11310;51.528;21.204;2023-02-19T04:16:07;99443.66;;;3.19;100.00
22283;BME280;11310;51.528;21.204;2023-02-19T04:18:38;99440.25;;;3.17;100.00
22283;BME280;11310;51.528;21.204;2023-02-19T04:21:09;99437.66;;;3.17;100.00
22283;BME280;11310;51.528;21.204;2023-02-19T04:23:41;99431.56;;;3.18;100.00
22283;BME280;11310;51.528;21.204;2023-02-19T04:26:12;99423.81;;;3.18;100.00
22283;BME280;11310;51.528;21.204;2023-02-19T04:28:41;99428.19;;;3.16;100.00
22283;BME280;11310;51.528;21.204;2023-02-19T04:31:10;99427.44;;;3.12;100.00
22283;BME280;11310;51.528;21.204;2023-02-19T04:33:39;99428.31;;;3.11;100.00
22283;BME280;11310;51.528;21.204;2023-02-19T04:36:10;99426.59;;;3.10;100.00
22283;BME280;11310;51.528;21.204;2023-02-19T04:38:38;99430.94;;;3.10;100.00
22283;BME280;11310;51.528;21.204;2023-02-19T04:41:07;99429.19;;;3.10;100.00
22283;BME280;11310;51.528;21.204;2023-02-19T04:43:36;99418.00;;;3.10;100.00
22283;BME280;11310;51.528;21.204;2023-02-19T04:46:05;99418.91;;;3.07;100.00
22283;BME280;11310;51.528;21.204;2023-02-19T04:48:34;99411.16;;;3.07;100.00
22283;BME280;11310;51.528;21.204;2023-02-19T04:51:04;99411.19;;;3.06;100.00
22283;BME280;11310;51.528;21.204;2023-02-19T04:53:35;99413.78;;;3.06;100.00
22283;BME280;11310;51.528;21.204;2023-02-19T04:56:07;99405.97;;;3.07;100.00
22283;BME280;11310;51.528;21.204;2023-02-19T04:58:36;99405.97;;;3.07;100.00
22283;BME280;11310;51.528;21.204;2023-02-19T05:01:05;99400.81;;;3.06;100.00
22283;BME280;11310;51.528;21.204;2023-02-19T05:03:34;99412.09;;;3.05;100.00
22283;BME280;11310;51.528;21.204;2023-02-19T05:06:03;99407.75;;;3.04;100.00
22283;BME280;11310;51.528;21.204;2023-02-19T05:08:31;99402.59;;;3.04;100.00
22283;BME280;11310;51.528;21.204;2023-02-19T05:11:03;99394.00;;;3.02;100.00
22283;BME280;11310;51.528;21.204;2023-02-19T05:13:32;99395.81;;;3.00;100.00
22283;BME280;11310;51.528;21.204;2023-02-19T05:16:04;99399.25;;;2.99;100.00
22283;BME280;11310;51.528;21.204;2023-02-19T05:18:33;99391.59;;;2.96;100.00
22283;BME280;11310;51.528;21.204;2023-02-19T05:21:02;99395.00;;;2.96;100.00
22283;BME280;11310;51.528;21.204;2023-02-19T05:23:31;99395.88;;;2.97;100.00
22283;BME280;11310;51.528;21.204;2023-02-19T05:26:04;99400.13;;;2.99;100.00
22283;BME280;11310;51.528;21.204;2023-02-19T05:28:34;99393.25;;;2.98;100.00
22283;BME280;11310;51.528;21.204;2023-02-19T05:31:04;99386.34;;;2.97;100.00
22283;BME280;11310;51.528;21.204;2023-02-19T05:33:34;99382.03;;;2.98;100.00
22283;BME280;11310;51.528;21.204;2023-02-19T05:36:05;99382.94;;;2.97;100.00
22283;BME280;11310;51.528;21.204;2023-02-19T05:38:35;99379.50;;;2.95;100.00
22283;BME280;11310;51.528;21.204;2023-02-19T05:41:09;99383.81;;;2.96;100.00
22283;BME280;11310;51.528;21.204;2023-02-19T05:43:40;99378.53;;;2.99;100.00
22283;BME280;11310;51.528;21.204;2023-02-19T05:46:10;99372.53;;;2.98;100.00
22283;BME280;11310;51.528;21.204;2023-02-19T05:48:39;99360.44;;;2.97;100.00
22283;BME280;11310;51.528;21.204;2023-02-19T05:51:09;99353.53;;;2.98;100.00
22283;BME280;11310;51.528;21.204;2023-02-19T05:53:38;99348.38;;;2.96;100.00
22283;BME280;11310;51.528;21.204;2023-02-19T05:56:23;99351.81;;;2.98;100.00
22283;BME280;11310;51.528;21.204;2023-02-19T05:58:54;99346.66;;;2.97;100.00
22283;BME280;11310;51.528;21.204;2023-02-19T06:01:24;99343.19;;;2.98;100.00
22283;BME280;11310;51.528;21.204;2023-02-19T06:03:53;99348.38;;;2.96;100.00
22283;BME280;11310;51.528;21.204;2023-02-19T06:06:24;99353.56;;;2.96;100.00
22283;BME280;11310;51.528;21.204;2023-02-19T06:08:53;99347.50;;;2.97;100.00
22283;BME280;11310;51.528;21.204;2023-02-19T06:11:23;99355.34;;;2.96;100.00
22283;BME280;11310;51.528;21.204;2023-02-19T06:13:52;99358.72;;;2.98;100.00
22283;BME280;11310;51.528;21.204;2023-02-19T06:16:22;99354.44;;;2.97;100.00
22283;BME280;11310;51.528;21.204;2023-02-19T06:18:50;99363.94;;;2.96;100.00
22283;BME280;11310;51.528;21.204;2023-02-19T06:21:19;99375.16;;;2.97;100.00
22283;BME280;11310;51.528;21.204;2023-02-19T06:23:48;99380.34;;;2.97;100.00
22283;BME280;11310;51.528;21.204;2023-02-19T06:26:19;99376.84;;;2.98;100.00
22283;BME280;11310;51.528;21.204;2023-02-19T06:28:50;99382.94;;;2.97;100.00
22283;BME280;11310;51.528;21.204;2023-02-19T06:31:21;99386.34;;;2.97;100.00
22283;BME280;11310;51.528;21.204;2023-02-19T06:33:50;99393.25;;;2.98;100.00
22283;BME280;11310;51.528;21.204;2023-02-19T06:36:19;99394.94;;;2.99;100.00
22283;BME280;11310;51.528;21.204;2023-02-19T06:38:49;99392.31;;;3.01;100.00
22283;BME280;11310;51.528;21.204;2023-02-19T06:41:18;99383.59;;;3.05;100.00
22283;BME280;11310;51.528;21.204;2023-02-19T06:43:46;99385.19;;;3.09;100.00
22283;BME280;11310;51.528;21.204;2023-02-19T06:46:16;99391.97;;;3.13;100.00
22283;BME280;11310;51.528;21.204;2023-02-19T06:48:44;99391.84;;;3.19;100.00
22283;BME280;11310;51.528;21.204;2023-02-19T06:51:14;99401.25;;;3.23;100.00
22283;BME280;11310;51.528;21.204;2023-02-19T06:53:44;99390.72;;;3.27;100.00
22283;BME280;11310;51.528;21.204;2023-02-19T06:56:24;99399.19;;;3.34;100.00
22283;BME280;11310;51.528;21.204;2023-02-19T06:58:55;99401.59;;;3.40;100.00
22283;BME280;11310;51.528;21.204;2023-02-19T07:01:25;99394.44;;;3.49;100.00
22283;BME280;11310;51.528;21.204;2023-02-19T07:03:54;99392.53;;;3.56;100.00
22283;BME280;11310;51.528;21.204;2023-02-19T07:06:24;99389.72;;;3.63;100.00
22283;BME280;11310;51.528;21.204;2023-02-19T07:08:54;99394.75;;;3.68;100.00
22283;BME280;11310;51.528;21.204;2023-02-19T07:11:24;99394.69;;;3.71;100.00
22283;BME280;11310;51.528;21.204;2023-02-19T07:13:56;99398.88;;;3.75;100.00
22283;BME280;11310;51.528;21.204;2023-02-19T07:16:26;99404.00;;;3.78;100.00
22283;BME280;11310;51.528;21.204;2023-02-19T07:18:55;99412.56;;;3.80;100.00
22283;BME280;11310;51.528;21.204;2023-02-19T07:21:25;99413.44;;;3.80;100.00
22283;BME280;11310;51.528;21.204;2023-02-19T07:23:54;99419.56;;;3.78;100.00
22283;BME280;11310;51.528;21.204;2023-02-19T07:26:23;99416.09;;;3.77;100.00
22283;BME280;11310;51.528;21.204;2023-02-19T07:28:52;99428.19;;;3.78;100.00
22283;BME280;11310;51.528;21.204;2023-02-19T07:31:22;99429.94;;;3.78;100.00
22283;BME280;11310;51.528;21.204;2023-02-19T07:33:53;99432.56;;;3.76;100.00
22283;BME280;11310;51.528;21.204;2023-02-19T07:36:23;99430.00;;;3.75;100.00
22283;BME280;11310;51.528;21.204;2023-02-19T07:38:53;99427.28;;;3.79;100.00
22283;BME280;11310;51.528;21.204;2023-02-19T07:41:23;99422.00;;;3.82;100.00
22283;BME280;11310;51.528;21.204;2023-02-19T07:43:54;99418.41;;;3.88;100.00
22283;BME280;11310;51.528;21.204;2023-02-19T07:46:22;99411.44;;;3.88;100.00
22283;BME280;11310;51.528;21.204;2023-02-19T07:48:52;99407.75;;;3.97;100.00
22283;BME280;11310;51.528;21.204;2023-02-19T07:51:21;99411.19;;;3.97;100.00
22283;BME280;11310;51.528;21.204;2023-02-19T07:53:50;99419.81;;;3.98;100.00
22283;BME280;11310;51.528;21.204;2023-02-19T07:56:19;99417.16;;;4.01;100.00
22283;BME280;11310;51.528;21.204;2023-02-19T07:58:48;99414.41;;;4.05;100.00
22283;BME280;11310;51.528;21.204;2023-02-19T08:01:18;99418.47;;;4.14;100.00
22283;BME280;11310;51.528;21.204;2023-02-19T08:04:12;99410.47;;;4.21;100.00
22283;BME280;11310;51.528;21.204;2023-02-19T08:06:40;99423.22;;;4.29;100.00
22283;BME280;11310;51.528;21.204;2023-02-19T08:09:08;99422.22;;;4.33;100.00
22283;BME280;11310;51.528;21.204;2023-02-19T08:11:37;99419.63;;;4.33;100.00
22283;BME280;11310;51.528;21.204;2023-02-19T08:14:24;99421.31;;;4.34;100.00
22283;BME280;11310;51.528;21.204;2023-02-19T08:16:53;99417.75;;;4.38;100.00
22283;BME280;11310;51.528;21.204;2023-02-19T08:19:23;99424.53;;;4.42;100.00
22283;BME280;11310;51.528;21.204;2023-02-19T08:21:52;99425.41;;;4.41;100.00
22283;BME280;11310;51.528;21.204;2023-02-19T08:24:20;99428.13;;;4.38;100.00
22283;BME280;11310;51.528;21.204;2023-02-19T08:26:49;99433.41;;;4.35;100.00
22283;BME280;11310;51.528;21.204;2023-02-19T08:29:17;99435.22;;;4.33;100.00
22283;BME280;11310;51.528;21.204;2023-02-19T08:31:46;99426.59;;;4.31;100.00
22283;BME280;11310;51.528;21.204;2023-02-19T08:34:15;99433.47;;;4.32;100.00
22283;BME280;11310;51.528;21.204;2023-02-19T08:36:46;99436.94;;;4.32;100.00
22283;BME280;11310;51.528;21.204;2023-02-19T08:39:15;99430.00;;;4.33;100.00
22283;BME280;11310;51.528;21.204;2023-02-19T08:41:46;99437.97;;;4.27;100.00
22283;BME280;11310;51.528;21.204;2023-02-19T08:44:15;99438.88;;;4.26;100.00
22283;BME280;11310;51.528;21.204;2023-02-19T08:46:44;99436.28;;;4.26;100.00
22283;BME280;11310;51.528;21.204;2023-02-19T08:49:13;99441.41;;;4.27;100.00
22283;BME280;11310;51.528;21.204;2023-02-19T08:51:42;99433.56;;;4.30;100.00
22283;BME280;11310;51.528;21.204;2023-02-19T08:54:12;99437.81;;;4.33;100.00
22283;BME280;11310;51.528;21.204;2023-02-19T08:56:41;99447.16;;;4.37;100.00
22283;BME280;11310;51.528;21.204;2023-02-19T08:59:09;99436.75;;;4.38;100.00
22283;BME280;11310;51.528;21.204;2023-02-19T09:01:38;99430.47;;;4.45;100.00
22283;BME280;11310;51.528;21.204;2023-02-19T09:04:09;99438.28;;;4.45;100.00
22283;BME280;11310;51.528;21.204;2023-02-19T09:06:39;99421.94;;;4.42;100.00
22283;BME280;11310;51.528;21.204;2023-02-19T09:09:08;99419.22;;;4.45;100.00
22283;BME280;11310;51.528;21.204;2023-02-19T09:11:39;99417.41;;;4.48;100.00
22283;BME280;11310;51.528;21.204;2023-02-19T09:14:07;99419.81;;;4.54;100.00
22283;BME280;11310;51.528;21.204;2023-02-19T09:16:36;99413.16;;;4.72;100.00
22283;BME280;11310;51.528;21.204;2023-02-19T09:19:05;99414.06;;;4.97;100.00
22283;BME280;11310;51.528;21.204;2023-02-19T09:21:33;99421.81;;;5.23;100.00
22283;BME280;11310;51.528;21.204;2023-02-19T09:24:02;99418.94;;;5.30;100.00
22283;BME280;11310;51.528;21.204;2023-02-19T09:26:31;99418.34;;;5.24;100.00
22283;BME280;11310;51.528;21.204;2023-02-19T09:29:02;99417.53;;;5.22;100.00
22283;BME280;11310;51.528;21.204;2023-02-19T09:31:30;99420.22;;;5.19;100.00
22283;BME280;11310;51.528;21.204;2023-02-19T09:34:02;99422.13;;;5.14;100.00
22283;BME280;11310;51.528;21.204;2023-02-19T09:36:30;99417.06;;;5.11;100.00
22283;BME280;11310;51.528;21.204;2023-02-19T09:38:59;99412.75;;;5.10;100.00
22283;BME280;11310;51.528;21.204;2023-02-19T09:41:30;99407.63;;;5.08;100.00
22283;BME280;11310;51.528;21.204;2023-02-19T09:44:00;99414.03;;;5.47;100.00
22283;BME280;11310;51.528;21.204;2023-02-19T09:46:34;99412.03;;;5.78;100.00
22283;BME280;11310;51.528;21.204;2023-02-19T09:49:06;99404.50;;;5.71;100.00
22283;BME280;11310;51.528;21.204;2023-02-19T09:51:40;99418.75;;;5.61;100.00
22283;BME280;11310;51.528;21.204;2023-02-19T09:54:16;99417.25;;;5.54;100.00
22283;BME280;11310;51.528;21.204;2023-02-19T09:56:47;99419.66;;;6.29;100.00
22283;BME280;11310;51.528;21.204;2023-02-19T09:59:19;99411.06;;;6.27;100.00
22283;BME280;11310;51.528;21.204;2023-02-19T10:01:55;99415.63;;;5.99;100.00
22283;BME280;11310;51.528;21.204;2023-02-19T10:04:24;99421.56;;;5.78;100.00
22283;BME280;11310;51.528;21.204;2023-02-19T10:06:55;99417.22;;;5.55;100.00
22283;BME280;11310;51.528;21.204;2023-02-19T10:09:29;99418.00;;;5.82;100.00
22283;BME280;11310;51.528;21.204;2023-02-19T10:11:58;99422.03;;;5.66;100.00
22283;BME280;11310;51.528;21.204;2023-02-19T10:14:31;99411.41;;;5.72;100.00
22283;BME280;11310;51.528;21.204;2023-02-19T10:17:20;99421.28;;;5.62;100.00
22283;BME280;11310;51.528;21.204;2023-02-19T10:19:50;99423.78;;;6.34;99.47
22283;BME280;11310;51.528;21.204;2023-02-19T10:22:19;99425.16;;;6.21;99.69
22283;BME280;11310;51.528;21.204;2023-02-19T10:24:51;99423.31;;;6.02;98.69
22283;BME280;11310;51.528;21.204;2023-02-19T10:27:22;99432.31;;;6.38;96.20
22283;BME280;11310;51.528;21.204;2023-02-19T10:29:53;99432.09;;;6.65;95.52
22283;BME280;11310;51.528;21.204;2023-02-19T10:32:25;99429.25;;;6.71;92.74
22283;BME280;11310;51.528;21.204;2023-02-19T10:35:08;99433.03;;;7.66;88.58
22283;BME280;11310;51.528;21.204;2023-02-19T10:37:41;99437.88;;;8.86;81.79
22283;BME280;11310;51.528;21.204;2023-02-19T10:40:14;99433.97;;;8.59;81.46
22283;BME280;11310;51.528;21.204;2023-02-19T10:42:45;99439.84;;;8.64;81.87
22283;BME280;11310;51.528;21.204;2023-02-19T10:45:20;99443.78;;;8.17;85.25
22283;BME280;11310;51.528;21.204;2023-02-19T10:47:51;99441.78;;;7.65;85.58
22283;BME280;11310;51.528;21.204;2023-02-19T10:50:25;99444.84;;;7.34;86.79
22283;BME280;11310;51.528;21.204;2023-02-19T10:52:56;99444.19;;;6.88;91.18
22283;BME280;11310;51.528;21.204;2023-02-19T10:55:29;99449.38;;;6.46;91.92
22283;BME280;11310;51.528;21.204;2023-02-19T10:58:19;99448.88;;;6.37;90.09
22283;BME280;11310;51.528;21.204;2023-02-19T11:01:08;99452.81;;;7.51;83.59
22283;BME280;11310;51.528;21.204;2023-02-19T11:03:40;99458.44;;;8.39;85.23
22283;BME280;11310;51.528;21.204;2023-02-19T11:06:10;99456.47;;;9.49;80.48
22283;BME280;11310;51.528;21.204;2023-02-19T11:08:50;99463.97;;;10.70;71.88
22283;BME280;11310;51.528;21.204;2023-02-19T11:11:32;99458.38;;;11.21;66.82
22283;BME280;11310;51.528;21.204;2023-02-19T11:14:04;99460.31;;;11.33;67.47
22283;BME280;11310;51.528;21.204;2023-02-19T11:16:41;99458.22;;;11.24;68.38
22283;BME280;11310;51.528;21.204;2023-02-19T11:19:28;99467.69;;;11.26;60.43
22283;BME280;11310;51.528;21.204;2023-02-19T11:21:58;99458.38;;;11.66;64.95
22283;BME280;11310;51.528;21.204;2023-02-19T11:24:32;99460.03;;;11.37;67.10
22283;BME280;11310;51.528;21.204;2023-02-19T11:27:06;99462.84;;;9.78;76.06
22283;BME280;11310;51.528;21.204;2023-02-19T11:29:34;99462.03;;;8.55;81.32
22283;BME280;11310;51.528;21.204;2023-02-19T11:32:22;99460.50;;;7.54;79.98
22283;BME280;11310;51.528;21.204;2023-02-19T11:35:12;99461.38;;;6.93;83.93
22283;BME280;11310;51.528;21.204;2023-02-19T11:37:55;99459.38;;;6.57;89.55
22283;BME280;11310;51.528;21.204;2023-02-19T11:40:40;99471.53;;;6.35;88.28
22283;BME280;11310;51.528;21.204;2023-02-19T11:43:27;99476.63;;;6.15;85.63
22283;BME280;11310;51.528;21.204;2023-02-19T11:46:01;99476.28;;;6.01;89.05
22283;BME280;11310;51.528;21.204;2023-02-19T11:48:46;99476.72;;;6.79;87.51
22283;BME280;11310;51.528;21.204;2023-02-19T11:51:41;99470.22;;;7.51;76.36
22283;BME280;11310;51.528;21.204;2023-02-19T11:54:29;99482.38;;;7.52;70.64
22283;BME280;11310;51.528;21.204;2023-02-19T11:57:08;99470.16;;;6.91;80.68
22283;BME280;11310;51.528;21.204;2023-02-19T11:59:46;99480.34;;;6.54;81.79
22283;BME280;11310;51.528;21.204;2023-02-19T12:02:30;99476.78;;;6.33;85.41
22283;BME280;11310;51.528;21.204;2023-02-19T12:05:33;99481.03;;;6.13;81.56
22283;BME280;11310;51.528;21.204;2023-02-19T12:11:11;99495.88;;;5.88;86.58
22283;BME280;11310;51.528;21.204;2023-02-19T12:14:02;99489.13;;;6.05;82.50
22283;BME280;11310;51.528;21.204;2023-02-19T12:16:39;99497.34;;;7.27;83.52
22283;BME280;11310;51.528;21.204;2023-02-19T12:19:24;99495.06;;;7.19;82.82
22283;BME280;11310;51.528;21.204;2023-02-19T12:22:10;99498.22;;;6.84;82.79
22283;BME280;11310;51.528;21.204;2023-02-19T12:25:04;99508.13;;;6.53;80.75
22283;BME280;11310;51.528;21.204;2023-02-19T12:27:48;99505.34;;;6.36;84.86
22283;BME280;11310;51.528;21.204;2023-02-19T12:30:32;99503.69;;;6.34;85.43
22283;BME280;11310;51.528;21.204;2023-02-19T12:36:22;99502.78;;;6.79;79.62
22283;BME280;11310;51.528;21.204;2023-02-19T12:39:00;99513.69;;;7.52;80.95
22283;BME280;11310;51.528;21.204;2023-02-19T12:41:41;99507.72;;;8.47;69.51
22283;BME280;11310;51.528;21.204;2023-02-19T12:44:16;99523.03;;;9.79;67.76
22283;BME280;11310;51.528;21.204;2023-02-19T12:46:49;99525.72;;;11.67;58.29
22283;BME280;11310;51.528;21.204;2023-02-19T12:49:24;99532.97;;;12.77;56.20
22283;BME280;11310;51.528;21.204;2023-02-19T12:51:56;99527.97;;;13.01;55.49
22283;BME280;11310;51.528;21.204;2023-02-19T12:54:29;99530.91;;;11.68;62.33
22283;BME280;11310;51.528;21.204;2023-02-19T12:57:05;99526.06;;;10.21;67.94
22283;BME280;11310;51.528;21.204;2023-02-19T12:59:37;99540.53;;;9.26;68.13
22283;BME280;11310;51.528;21.204;2023-02-19T13:02:14;99541.09;;;8.79;70.23
22283;BME280;11310;51.528;21.204;2023-02-19T13:04:48;99541.34;;;8.54;73.87
22283;BME280;11310;51.528;21.204;2023-02-19T13:07:22;99546.25;;;8.03;74.60
22283;BME280;11310;51.528;21.204;2023-02-19T13:09:55;99551.69;;;7.59;76.24
22283;BME280;11310;51.528;21.204;2023-02-19T13:12:29;99545.03;;;7.30;78.59
22283;BME280;11310;51.528;21.204;2023-02-19T13:15:03;99549.50;;;7.07;77.16
22283;BME280;11310;51.528;21.204;2023-02-19T13:17:43;99545.66;;;7.97;74.73
22283;BME280;11310;51.528;21.204;2023-02-19T13:20:18;99556.63;;;8.45;67.66
22283;BME280;11310;51.528;21.204;2023-02-19T13:22:57;99544.34;;;8.65;70.27
22283;BME280;11310;51.528;21.204;2023-02-19T13:25:57;99556.16;;;9.28;69.05
22283;BME280;11310;51.528;21.204;2023-02-19T13:28:43;99569.59;;;9.56;65.50
22283;BME280;11310;51.528;21.204;2023-02-19T13:31:32;99579.38;;;10.05;60.99
22283;BME280;11310;51.528;21.204;2023-02-19T13:34:17;99572.03;;;9.06;66.76